createdAt,value
2019-05-12T15:06:29.673Z,16.00
2019-05-12T15:09:11.473Z,15.80
2019-05-12T15:11:52.009Z,16.20
2019-05-12T15:14:38.184Z,15.20
2019-05-12T15:17:22.524Z,14.30
2019-05-12T15:20:00.251Z,13.50
2019-05-12T15:22:42.943Z,13.40
2019-05-12T15:25:18.140Z,13.70
2019-05-12T15:27:55.267Z,14.80
2019-05-12T15:30:33.779Z,15.70
2019-05-12T15:33:14.127Z,15.00
2019-05-12T15:35:55.879Z,14.20
2019-05-12T15:38:43.693Z,13.50
2019-05-12T15:41:28.039Z,13.20
2019-05-12T15:44:09.222Z,12.90
2019-05-12T15:49:54.638Z,13.40
2019-05-12T15:52:38.322Z,14.50
2019-05-12T15:55:13.665Z,14.30
2019-05-12T15:57:53.736Z,13.50
2019-05-12T16:00:34.407Z,12.90
2019-05-12T16:03:12.148Z,12.50
2019-05-12T16:06:01.274Z,12.40
2019-05-12T16:08:34.748Z,12.20
2019-05-12T16:11:07.808Z,12.20
2019-05-12T16:13:54.792Z,12.50
2019-05-12T16:16:36.394Z,13.50
2019-05-12T16:19:15.795Z,14.30
2019-05-12T16:21:59.194Z,14.40
2019-05-12T16:24:34.196Z,13.80
2019-05-12T16:27:33.147Z,13.20
2019-05-12T16:30:13.923Z,12.80
2019-05-12T16:32:54.841Z,12.80
2019-05-12T16:35:47.823Z,12.80
2019-05-12T16:38:35.589Z,12.60
2019-05-12T16:41:19.985Z,12.70
2019-05-12T16:44:07.573Z,13.10
2019-05-12T16:46:44.555Z,12.60
2019-05-12T16:49:33.146Z,12.00
2019-05-12T16:52:06.136Z,11.60
2019-05-12T16:54:39.924Z,11.40
2019-05-12T16:57:19.603Z,11.20
2019-05-12T17:00:03.567Z,11.20
2019-05-12T17:02:41.934Z,11.10
2019-05-12T17:05:24.612Z,11.00
2019-05-12T17:08:04.212Z,11.00
2019-05-12T17:10:56.769Z,11.00
2019-05-12T17:13:36.886Z,10.90
2019-05-12T17:16:15.796Z,10.90
2019-05-12T17:19:00.081Z,11.20
2019-05-12T17:21:37.021Z,11.60
2019-05-12T17:24:14.438Z,11.40
2019-05-12T17:26:58.900Z,11.10
2019-05-12T17:29:37.258Z,10.90
2019-05-12T17:32:18.306Z,10.70
2019-05-12T17:34:55.178Z,10.70
2019-05-12T17:37:41.289Z,10.70
2019-05-12T17:40:24.281Z,10.70
2019-05-12T17:43:11.632Z,10.70
2019-05-12T17:45:50.509Z,10.70
2019-05-12T17:48:26.433Z,10.80
2019-05-12T17:51:08.923Z,10.70
2019-05-12T17:58:04.456Z,10.50
2019-05-12T18:00:47.575Z,10.40
2019-05-12T18:03:25.769Z,10.30
2019-05-12T18:06:35.242Z,10.30
2019-05-12T18:09:20.156Z,10.30
2019-05-12T18:12:04.239Z,10.20
2019-05-12T18:14:50.325Z,10.10
2019-05-12T18:17:24.065Z,9.60
2019-05-12T18:20:04.149Z,10.00
2019-05-12T18:22:45.085Z,9.90
2019-05-12T18:28:21.630Z,9.90
2019-05-12T18:31:04.305Z,9.80
2019-05-12T18:33:57.010Z,9.70
2019-05-12T18:36:43.306Z,9.70
2019-05-12T18:39:24.127Z,9.60
2019-05-12T18:42:00.721Z,9.50
2019-05-12T18:44:35.770Z,10.10
2019-05-12T18:47:23.412Z,9.40
2019-05-12T18:50:00.694Z,9.30
2019-05-12T18:52:46.174Z,9.20
2019-05-12T18:55:29.348Z,9.00
2019-05-12T18:58:21.873Z,8.80
2019-05-12T19:01:07.613Z,8.80
2019-05-12T19:03:54.604Z,8.70
2019-05-12T19:06:34.706Z,8.70
2019-05-12T19:09:16.145Z,8.60
2019-05-12T19:11:56.809Z,8.50
2019-05-12T19:14:36.873Z,8.40
2019-05-12T19:17:15.234Z,8.40
2019-05-12T19:20:00.084Z,8.50
2019-05-12T19:22:39.509Z,8.30
2019-05-12T19:25:20.281Z,8.30
2019-05-12T19:28:06.985Z,8.30
2019-05-12T19:30:46.586Z,8.00
2019-05-12T19:33:52.994Z,7.70
2019-05-12T19:36:24.027Z,7.30
2019-05-12T19:39:03.510Z,7.00
2019-05-12T19:41:48.977Z,6.70
2019-05-12T19:44:31.079Z,6.30
2019-05-12T19:47:09.159Z,6.40
2019-05-12T19:49:50.727Z,6.60
2019-05-12T19:55:27.719Z,6.10
2019-05-12T19:58:13.528Z,5.80
2019-05-12T20:00:56.782Z,5.60
2019-05-12T20:03:33.518Z,5.50
2019-05-12T20:06:28.235Z,5.30
2019-05-12T20:09:11.029Z,5.20
2019-05-12T20:11:48.934Z,5.10
2019-05-12T20:14:34.450Z,5.30
2019-05-12T20:17:27.297Z,5.40
2019-05-12T20:20:07.937Z,5.70
2019-05-12T20:32:34.738Z,5.70
2019-05-12T20:35:17.741Z,5.50
2019-05-12T20:38:07.014Z,5.50
2019-05-12T20:40:48.806Z,5.70
2019-05-12T20:43:32.165Z,5.60
2019-05-12T20:46:15.471Z,5.30
2019-05-12T20:49:01.064Z,5.10
2019-05-12T20:51:39.045Z,5.20
2019-05-12T20:54:25.416Z,4.90
2019-05-12T20:57:07.977Z,5.00
2019-05-12T20:59:46.465Z,5.60
2019-05-12T21:02:25.696Z,5.50
2019-05-12T21:05:16.619Z,5.80
2019-05-12T21:07:55.914Z,5.80
2019-05-12T21:10:34.279Z,5.90
2019-05-12T21:13:20.383Z,6.00
2019-05-12T21:25:23.334Z,6.20
2019-05-12T21:28:02.512Z,6.20
2019-05-12T21:30:55.869Z,6.10
2019-05-12T21:33:41.619Z,6.10
2019-05-12T21:36:24.734Z,6.10
2019-05-12T21:39:08.432Z,5.90
2019-05-12T21:41:50.410Z,5.80
2019-05-12T21:44:41.249Z,6.00
2019-05-12T21:47:17.520Z,5.80
2019-05-12T21:53:50.556Z,5.70
2019-05-12T22:05:51.042Z,5.20
2019-05-12T22:11:00.792Z,4.70
2019-05-12T22:13:46.896Z,4.50
2019-05-12T22:16:15.856Z,4.20
2019-05-12T22:19:00.197Z,3.90
2019-05-12T22:21:35.764Z,3.80
2019-05-12T22:24:38.677Z,4.60
2019-05-12T22:27:30.514Z,3.70
2019-05-12T22:33:20.027Z,3.30
2019-05-12T22:36:14.040Z,3.20
2019-05-12T22:39:02.249Z,3.10
2019-05-12T22:41:41.681Z,3.20
2019-05-12T22:44:20.913Z,4.00
2019-05-12T22:47:12.736Z,4.50
2019-05-12T22:50:33.238Z,4.70
2019-05-12T22:53:13.357Z,4.80
2019-05-12T22:55:53.457Z,5.10
2019-05-12T22:58:59.095Z,5.20
2019-05-12T23:01:49.710Z,4.40
2019-05-12T23:04:44.744Z,5.00
2019-05-12T23:07:28.409Z,5.20
2019-05-12T23:10:41.568Z,5.10
2019-05-12T23:13:16.719Z,5.30
2019-05-12T23:16:06.770Z,5.30
2019-05-12T23:18:44.279Z,5.30
2019-05-12T23:21:19.186Z,5.40
2019-05-12T23:24:00.102Z,5.50
2019-05-12T23:26:35.503Z,5.40
2019-05-12T23:29:31.036Z,5.40
2019-05-12T23:32:12.050Z,5.30
2019-05-12T23:34:52.578Z,5.10
2019-05-12T23:40:16.615Z,5.10
2019-05-12T23:42:58.764Z,5.10
2019-05-12T23:45:34.030Z,4.80
2019-05-12T23:48:07.179Z,4.70
2019-05-12T23:50:43.848Z,4.60
2019-05-12T23:53:16.347Z,4.70
2019-05-12T23:55:50.115Z,4.50
2019-05-12T23:58:30.315Z,4.40
